ilmateenistus.ee keskkonnaagentuur.ee
EETN Tallinna lennuväli
FTEO31 EETN 231700
TAF EETN 231700Z 2318/2418 13006KT 9999 SCT030 PROB40 TEMPO 2323/2406
    1500 BR BKN006=

METAR EETN 231850Z 06002KT CAVOK M01/M02 Q1028 NOSIG=
Tallinna lennuväli
EEKA Kärdla lennuväli
FCEO32 EETN 231200 AAA
TAF AMD EEKA 231600Z 2313/2319 CNL=

METAR EEKA 231850Z NIL=
Kärdla lennuväli
EEKE Kuressaare lennuväli
FCEO32 EETN 231400 AAA
TAF AMD EEKE 231800Z 2315/2321 CNL=

METAR EEKE 231850Z AUTO 05006KT 030V100 9999NDV SCT032 OVC040 03/M02 Q1027=
Kuressaare lennuväli
EEPU Pärnu lennuväli
METAR EEPU 231850Z NIL=
Pärnu lennuväli
EETU Tartu lennuväli
METAR EETU 231850Z 00000KT CAVOK M01/M03 Q1028=
Tartu lennuväli
EEEI Ämari lennuväli
METAR EEEI 231850Z 05004KT CAVOK M03/M03 Q1029 NOSIG=
Ämari lennuväli